Time;durP1;ratioP1;P1;durP2;ratioP2;P2;SDS_P1;SDS_P2;PMS_P1;PMS_P2;Temp;Humidity;BMP_temperature;BMP_pressure;BME280_temperature;BME280_humidity;BME280_pressure;Samples;Min_cycle;Max_cycle;Signal;HPM_P1;HPM_P2
2022/07/31 00:00:21;;;;;;;1999.90;999.90;;;17.00;99.90;;;;;;5122242;27;20039;-76
2022/07/31 00:02:46;;;;;;;1999.90;999.90;;;17.00;99.90;;;;;;5093300;27;20458;-76
2022/07/31 00:05:12;;;;;;;1999.90;999.90;;;16.90;99.90;;;;;;5102947;28;20067;-76
2022/07/31 00:07:38;;;;;;;1999.90;999.90;;;16.90;99.90;;;;;;5118010;27;20035;-75
2022/07/31 00:10:04;;;;;;;1999.90;999.90;;;16.90;99.90;;;;;;5116042;27;20118;-76
2022/07/31 00:12:30;;;;;;;1999.90;999.90;;;17.00;99.90;;;;;;5118527;27;20164;-76
2022/07/31 00:14:55;;;;;;;1999.90;999.90;;;17.00;99.90;;;;;;5125144;27;20616;-76
2022/07/31 00:17:21;;;;;;;1999.90;999.90;;;17.00;99.90;;;;;;5126859;27;20570;-76
2022/07/31 00:19:47;;;;;;;1999.90;999.90;;;16.90;99.90;;;;;;5106784;28;20070;-76
2022/07/31 00:22:12;;;;;;;1999.90;999.90;;;16.90;99.90;;;;;;5113914;28;20052;-76
2022/07/31 00:24:38;;;;;;;1999.90;999.90;;;17.00;99.90;;;;;;5111494;28;20039;-76
2022/07/31 00:27:04;;;;;;;1999.90;999.90;;;16.90;99.90;;;;;;5120130;27;20490;-76
2022/07/31 00:29:30;;;;;;;1999.90;999.90;;;16.90;99.90;;;;;;5102696;28;20487;-76
2022/07/31 00:31:55;;;;;;;1999.90;999.90;;;16.90;99.90;;;;;;5122842;27;20444;-76
2022/07/31 00:34:21;;;;;;;1999.90;999.90;;;16.90;99.90;;;;;;5111905;28;20050;-76
2022/07/31 00:36:47;;;;;;;1999.90;999.90;;;16.80;99.90;;;;;;5128508;27;20027;-76
2022/07/31 00:39:14;;;;;;;1999.90;999.90;;;16.80;99.90;;;;;;5126591;27;20051;-76
2022/07/31 00:41:42;;;;;;;1999.90;999.90;;;16.70;99.90;;;;;;5130036;27;20047;-76
2022/07/31 00:44:08;;;;;;;1999.90;999.90;;;16.60;99.90;;;;;;5123609;27;20039;-76
2022/07/31 00:46:35;;;;;;;1999.90;999.90;;;16.50;99.90;;;;;;5096870;27;20482;-76
2022/07/31 00:49:01;;;;;;;1999.90;999.90;;;16.50;99.90;;;;;;5133440;27;20428;-76
2022/07/31 00:51:27;;;;;;;1999.90;999.90;;;16.40;99.90;;;;;;5114142;27;20051;-76
2022/07/31 00:53:53;;;;;;;1999.90;999.90;;;16.30;99.90;;;;;;5125688;27;20518;-76
2022/07/31 00:56:18;;;;;;;1999.90;999.90;;;16.30;99.90;;;;;;5131121;27;20027;-76
2022/07/31 00:58:44;;;;;;;1999.90;999.90;;;16.20;99.90;;;;;;5114258;27;20047;-76
2022/07/31 01:01:09;;;;;;;1999.90;999.90;;;16.20;99.90;;;;;;5109837;27;20032;-76
2022/07/31 01:03:35;;;;;;;1999.90;999.90;;;16.30;99.90;;;;;;5114905;27;20096;-76
2022/07/31 01:06:02;;;;;;;1999.90;999.90;;;16.20;99.90;;;;;;5132079;27;20120;-76
2022/07/31 01:08:28;;;;;;;1999.90;999.90;;;16.30;99.90;;;;;;5131595;27;20051;-76
2022/07/31 01:11:18;;;;;;;1999.90;999.90;;;16.30;99.90;;;;;;5131981;27;20517;-76
2022/07/31 01:13:53;;;;;;;1999.90;999.90;;;16.30;99.90;;;;;;5130863;27;20167;-76
2022/07/31 01:16:20;;;;;;;1999.90;999.90;;;16.30;99.90;;;;;;5123455;27;20038;-76
2022/07/31 01:18:48;;;;;;;1999.90;999.90;;;16.40;99.90;;;;;;5125571;27;20393;-77
2022/07/31 01:21:19;;;;;;;1999.90;999.90;;;16.50;99.90;;;;;;5123081;27;20044;-76
2022/07/31 01:23:49;;;;;;;1999.90;999.90;;;16.60;99.90;;;;;;5125802;27;20046;-76
2022/07/31 01:26:29;;;;;;;1999.90;999.90;;;16.60;99.90;;;;;;5131805;27;20440;-76
2022/07/31 01:29:08;;;;;;;1999.90;999.90;;;16.70;99.90;;;;;;5126860;27;20126;-76
2022/07/31 01:31:41;;;;;;;1999.90;999.90;;;16.70;99.90;;;;;;5122992;27;20039;-76
2022/07/31 01:34:15;;;;;;;1999.90;999.90;;;16.80;99.90;;;;;;5129405;27;20108;-76
2022/07/31 01:36:46;;;;;;;1999.90;999.90;;;16.80;99.90;;;;;;5131478;27;20379;-76
2022/07/31 01:39:11;;;;;;;1999.90;999.90;;;16.90;99.90;;;;;;5132386;27;20047;-76
2022/07/31 01:41:41;;;;;;;1999.90;999.90;;;16.90;99.90;;;;;;5095138;27;20035;-76
2022/07/31 01:44:09;;;;;;;1999.90;999.90;;;16.90;99.90;;;;;;5129873;27;20046;-76
2022/07/31 01:46:36;;;;;;;1999.90;999.90;;;17.00;99.90;;;;;;5110869;27;20035;-76
2022/07/31 01:49:02;;;;;;;1999.90;999.90;;;17.00;99.90;;;;;;5110123;28;20380;-76
2022/07/31 01:51:30;;;;;;;1999.90;999.90;;;17.00;99.90;;;;;;5123200;27;20035;-76
2022/07/31 01:53:59;;;;;;;1999.90;999.90;;;17.00;99.90;;;;;;5132326;27;20039;-76
2022/07/31 01:56:26;;;;;;;1999.90;999.90;;;17.00;99.90;;;;;;5121556;27;20054;-76
2022/07/31 01:58:53;;;;;;;1999.90;999.90;;;17.00;99.90;;;;;;5111969;27;20469;-76
2022/07/31 02:01:19;;;;;;;1999.90;999.90;;;17.10;99.90;;;;;;5118103;27;20028;-76
2022/07/31 02:03:46;;;;;;;1999.90;999.90;;;17.10;99.90;;;;;;5128289;27;20039;-76
2022/07/31 02:06:17;;;;;;;1999.90;999.90;;;17.10;99.90;;;;;;5130731;27;20070;-76
2022/07/31 02:08:46;;;;;;;1999.90;999.90;;;17.10;99.90;;;;;;5128766;27;20085;-76
2022/07/31 02:11:14;;;;;;;1999.90;999.90;;;17.20;99.90;;;;;;5116154;27;20067;-76
2022/07/31 02:13:40;;;;;;;1999.90;999.90;;;17.20;99.90;;;;;;5109921;27;20046;-76
2022/07/31 02:16:07;;;;;;;1999.90;999.90;;;17.20;99.90;;;;;;5130511;27;20079;-76
2022/07/31 02:18:33;;;;;;;1999.90;999.90;;;17.20;99.90;;;;;;5130880;27;20079;-76
2022/07/31 02:20:59;;;;;;;1999.90;999.90;;;17.20;99.90;;;;;;5130776;27;20439;-77
2022/07/31 02:23:24;;;;;;;1999.90;999.90;;;17.20;99.90;;;;;;5117144;27;20048;-76
2022/07/31 02:25:51;;;;;;;1999.90;999.90;;;17.30;99.90;;;;;;5130263;27;20047;-76
2022/07/31 02:28:21;;;;;;;1999.90;999.90;;;17.30;99.90;;;;;;5125945;27;20035;-76
2022/07/31 02:30:47;;;;;;;1999.90;999.90;;;17.30;99.90;;;;;;5094897;27;20043;-76
2022/07/31 02:33:17;;;;;;;1999.90;999.90;;;17.30;99.90;;;;;;5130684;27;20043;-76
2022/07/31 02:35:46;;;;;;;1999.90;999.90;;;17.30;99.90;;;;;;5109736;27;20039;-76
2022/07/31 02:38:14;;;;;;;1999.90;999.90;;;17.30;99.90;;;;;;5129395;27;20030;-76
2022/07/31 02:40:40;;;;;;;1999.90;999.90;;;17.30;99.90;;;;;;5098759;27;20055;-75
2022/07/31 02:43:07;;;;;;;1999.90;999.90;;;17.30;99.90;;;;;;5118705;27;20043;-74
2022/07/31 02:45:33;;;;;;;1999.90;999.90;;;17.30;99.90;;;;;;5116466;27;20046;-74
2022/07/31 02:47:58;;;;;;;1999.90;999.90;;;17.40;99.90;;;;;;5116914;27;20477;-74
2022/07/31 02:50:24;;;;;;;1999.90;999.90;;;17.30;99.90;;;;;;5122413;27;20100;-74
2022/07/31 02:52:50;;;;;;;1999.90;999.90;;;17.40;99.90;;;;;;5108491;27;20402;-74
2022/07/31 02:55:17;;;;;;;1999.90;999.90;;;17.40;99.90;;;;;;5123221;27;20031;-74
2022/07/31 02:57:43;;;;;;;1999.90;999.90;;;17.40;99.90;;;;;;5129073;27;20039;-74
2022/07/31 03:00:22;;;;;;;1999.90;999.90;;;17.40;99.90;;;;;;5122479;27;20076;-74
2022/07/31 03:02:49;;;;;;;1999.90;999.90;;;17.30;99.90;;;;;;5124453;27;20065;-74
2022/07/31 03:05:15;;;;;;;1999.90;999.90;;;17.30;99.90;;;;;;5109010;27;20439;-74
2022/07/31 03:07:41;;;;;;;1999.90;999.90;;;17.40;99.90;;;;;;5105627;27;20078;-74
2022/07/31 03:10:09;;;;;;;1999.90;999.90;;;17.40;99.90;;;;;;5123037;27;20045;-74
2022/07/31 03:12:46;;;;;;;1999.90;999.90;;;17.40;99.90;;;;;;5126195;27;20110;-74
2022/07/31 03:15:15;;;;;;;1999.90;999.90;;;17.30;99.90;;;;;;5130459;27;20452;-74
2022/07/31 03:17:42;;;;;;;1999.90;999.90;;;17.30;99.90;;;;;;5099882;27;20646;-74
2022/07/31 03:20:08;;;;;;;1999.90;999.90;;;17.30;99.90;;;;;;5123851;27;20140;-74
2022/07/31 03:22:34;;;;;;;1999.90;999.90;;;17.30;99.90;;;;;;5120582;27;20035;-74
2022/07/31 03:25:02;;;;;;;1999.90;999.90;;;17.30;99.90;;;;;;5130663;27;20569;-74
2022/07/31 03:27:28;;;;;;;1999.90;999.90;;;17.30;99.90;;;;;;5125917;27;20039;-74
2022/07/31 03:29:53;;;;;;;1999.90;999.90;;;17.20;99.90;;;;;;5128201;27;20091;-74
2022/07/31 03:32:19;;;;;;;1999.90;999.90;;;17.20;99.90;;;;;;5118562;27;20081;-74
2022/07/31 03:34:45;;;;;;;1999.90;999.90;;;17.20;99.90;;;;;;5111583;27;20082;-74
2022/07/31 03:37:11;;;;;;;1999.90;999.90;;;17.10;99.90;;;;;;5121352;27;20036;-73
2022/07/31 03:39:37;;;;;;;1999.90;999.90;;;17.00;99.90;;;;;;5117798;27;20047;-73
2022/07/31 03:42:03;;;;;;;1999.90;999.90;;;17.00;99.90;;;;;;5117849;27;20043;-74
2022/07/31 03:44:31;;;;;;;1999.90;999.90;;;16.90;99.90;;;;;;5108185;27;20040;-73
2022/07/31 03:46:58;;;;;;;1999.90;999.90;;;16.80;99.90;;;;;;5122713;27;20050;-74
2022/07/31 03:49:24;;;;;;;1999.90;999.90;;;16.80;99.90;;;;;;5129104;27;20043;-73
2022/07/31 03:51:49;;;;;;;1999.90;999.90;;;16.70;99.90;;;;;;5111874;27;20031;-74
2022/07/31 03:54:15;;;;;;;1999.90;999.90;;;16.60;99.90;;;;;;5128060;27;20548;-74
2022/07/31 03:56:45;;;;;;;1999.90;999.90;;;16.60;99.90;;;;;;5128957;27;20058;-74
2022/07/31 03:59:12;;;;;;;1999.90;999.90;;;16.50;99.90;;;;;;5122423;27;20041;-74
2022/07/31 04:01:38;;;;;;;1999.90;999.90;;;16.50;99.90;;;;;;5124357;27;20043;-74
2022/07/31 04:04:04;;;;;;;1999.90;999.90;;;16.50;99.90;;;;;;5117226;27;20062;-74
2022/07/31 04:06:29;;;;;;;1999.90;999.90;;;16.50;99.90;;;;;;5110191;27;20414;-74
2022/07/31 04:08:55;;;;;;;1999.90;999.90;;;16.50;99.90;;;;;;5122661;27;20039;-74
2022/07/31 04:11:20;;;;;;;1999.90;999.90;;;16.50;99.90;;;;;;5092412;27;20039;-74
2022/07/31 04:13:46;;;;;;;1999.90;999.90;;;16.50;99.90;;;;;;5125440;27;20122;-75
2022/07/31 04:16:12;;;;;;;1999.90;999.90;;;16.60;99.90;;;;;;5120506;27;20039;-74
2022/07/31 04:18:38;;;;;;;1999.90;999.90;;;16.70;99.90;;;;;;5111195;28;20114;-74
2022/07/31 04:21:04;;;;;;;1999.90;999.90;;;16.70;99.90;;;;;;5126245;28;20229;-74
2022/07/31 04:23:29;;;;;;;1999.90;999.90;;;16.70;99.90;;;;;;5129643;28;20043;-74
2022/07/31 04:25:55;;;;;;;1999.90;999.90;;;16.70;99.90;;;;;;5120709;28;20559;-74
2022/07/31 04:28:20;;;;;;;1999.90;999.90;;;16.80;99.90;;;;;;5126719;28;20047;-74
2022/07/31 04:30:46;;;;;;;1999.90;999.90;;;16.80;99.90;;;;;;5101783;28;20044;-74
2022/07/31 04:33:13;;;;;;;1999.90;999.90;;;16.80;99.90;;;;;;5125134;28;20043;-74
2022/07/31 04:35:40;;;;;;;1999.90;999.90;;;16.80;99.90;;;;;;5126037;28;20043;-74
2022/07/31 04:38:06;;;;;;;1999.90;999.90;;;16.80;99.90;;;;;;5110959;28;20084;-74
2022/07/31 04:40:32;;;;;;;1999.90;999.90;;;16.80;99.90;;;;;;5122241;28;20469;-74
2022/07/31 04:42:57;;;;;;;1999.90;999.90;;;16.90;99.90;;;;;;5124493;28;20035;-74
2022/07/31 04:45:23;;;;;;;1999.90;999.90;;;16.90;99.90;;;;;;5093353;28;20047;-74
2022/07/31 04:47:49;;;;;;;1999.90;999.90;;;16.90;99.90;;;;;;5128716;28;20089;-74
2022/07/31 04:50:14;;;;;;;1999.90;999.90;;;16.90;99.90;;;;;;5127829;28;20040;-74
2022/07/31 04:52:40;;;;;;;1999.90;999.90;;;17.00;99.90;;;;;;5119614;28;20112;-74
2022/07/31 04:55:06;;;;;;;1999.90;999.90;;;17.00;99.90;;;;;;5117269;28;20048;-74
2022/07/31 04:57:32;;;;;;;1999.90;999.90;;;17.00;99.90;;;;;;5126798;28;20114;-74
2022/07/31 04:59:57;;;;;;;1999.90;999.90;;;17.00;99.90;;;;;;5108969;28;20160;-74
2022/07/31 05:02:23;;;;;;;1999.90;999.90;;;17.10;99.90;;;;;;5128023;28;20039;-74
2022/07/31 05:04:48;;;;;;;1999.90;999.90;;;17.10;99.90;;;;;;5125874;28;20035;-74
2022/07/31 05:07:14;;;;;;;1999.90;999.90;;;17.10;99.90;;;;;;5123076;28;20050;-74
2022/07/31 05:09:40;;;;;;;1999.90;999.90;;;17.20;99.90;;;;;;5128760;28;20027;-74
2022/07/31 05:12:07;;;;;;;1999.90;999.90;;;17.20;99.90;;;;;;5109627;28;20035;-74
2022/07/31 05:14:32;;;;;;;1999.90;999.90;;;17.20;99.90;;;;;;5102326;28;20560;-74
2022/07/31 05:16:58;;;;;;;1999.90;999.90;;;17.30;99.90;;;;;;5122755;28;20036;-74
2022/07/31 05:19:28;;;;;;;1999.90;999.90;;;17.40;99.90;;;;;;5127624;28;20487;-74
2022/07/31 05:21:55;;;;;;;1999.90;999.90;;;17.40;99.90;;;;;;5127164;28;20546;-74
2022/07/31 05:24:22;;;;;;;1999.90;999.90;;;17.50;99.90;;;;;;5124179;28;20049;-74
2022/07/31 05:26:47;;;;;;;1999.90;999.90;;;17.60;99.90;;;;;;5124859;27;20453;-74
2022/07/31 05:29:13;;;;;;;1999.90;999.90;;;17.70;99.90;;;;;;5131476;27;20126;-74
2022/07/31 05:31:39;;;;;;;1999.90;999.90;;;17.70;99.90;;;;;;5131800;27;20092;-74
2022/07/31 05:34:04;;;;;;;1999.90;999.90;;;17.80;99.90;;;;;;5130486;27;20050;-74
2022/07/31 05:36:30;;;;;;;1999.90;999.90;;;17.90;99.90;;;;;;5127408;27;20050;-74
2022/07/31 05:38:55;;;;;;;1999.90;999.90;;;17.90;99.90;;;;;;5088430;28;20050;-74
2022/07/31 05:41:21;;;;;;;1999.90;999.90;;;17.90;99.90;;;;;;5125507;27;20043;-74
2022/07/31 05:43:47;;;;;;;1999.90;999.90;;;17.90;99.90;;;;;;5126854;27;20558;-74
2022/07/31 05:46:16;;;;;;;1999.90;999.90;;;18.00;99.90;;;;;;5128516;27;20050;-74
2022/07/31 05:48:42;;;;;;;1999.90;999.90;;;18.00;99.90;;;;;;5129360;27;20050;-74
2022/07/31 05:51:10;;;;;;;1999.90;999.90;;;18.00;99.90;;;;;;5108611;27;20155;-74
2022/07/31 05:53:36;;;;;;;1999.90;999.90;;;18.10;99.90;;;;;;5129689;27;20118;-74
2022/07/31 05:56:03;;;;;;;1999.90;999.90;;;18.20;99.90;;;;;;5131384;27;20038;-74
2022/07/31 05:58:28;;;;;;;1999.90;999.90;;;18.30;99.90;;;;;;5130681;27;20043;-74
2022/07/31 06:00:54;;;;;;;1999.90;999.90;;;18.40;99.90;;;;;;5112509;27;20031;-74
2022/07/31 06:03:24;;;;;;;1999.90;999.90;;;18.50;99.90;;;;;;5110225;27;20068;-74
2022/07/31 06:05:50;;;;;;;1999.90;999.90;;;18.60;99.90;;;;;;5125384;27;20443;-74
2022/07/31 06:08:16;;;;;;;1999.90;999.90;;;18.60;99.90;;;;;;5129421;27;20042;-75
2022/07/31 06:10:44;;;;;;;1999.90;999.90;;;18.70;99.90;;;;;;5109857;27;20031;-75
2022/07/31 06:13:22;;;;;;;1999.90;999.90;;;18.80;99.90;;;;;;5118909;27;20079;-77
2022/07/31 06:15:47;;;;;;;1999.90;999.90;;;18.90;99.90;;;;;;5130893;27;20297;-77
2022/07/31 06:18:34;;;;;;;1999.90;999.90;;;18.90;99.90;;;;;;5129776;27;20088;-77
2022/07/31 06:21:02;;;;;;;1999.90;999.90;;;19.00;99.90;;;;;;5024022;28;20045;-76
2022/07/31 06:23:30;;;;;;;1999.90;999.90;;;19.10;99.90;;;;;;5025945;28;20538;-77
2022/07/31 06:25:56;;;;;;;1999.90;999.90;;;19.20;99.90;;;;;;5026333;28;20413;-76
2022/07/31 06:28:25;;;;;;;1999.90;999.90;;;19.20;99.90;;;;;;4994843;28;20049;-77
2022/07/31 06:30:51;;;;;;;1999.90;999.90;;;19.30;99.90;;;;;;5027556;28;20462;-76
2022/07/31 06:33:16;;;;;;;1999.90;999.90;;;19.40;99.90;;;;;;5026445;28;20165;-77
2022/07/31 06:35:42;;;;;;;1999.90;999.90;;;19.40;99.90;;;;;;5025655;28;20157;-77
2022/07/31 06:38:08;;;;;;;1999.90;999.90;;;19.50;99.90;;;;;;5026286;28;20053;-76
2022/07/31 06:40:33;;;;;;;1999.90;999.90;;;19.50;99.90;;;;;;5025907;28;20061;-77
2022/07/31 06:42:59;;;;;;;1999.90;999.90;;;19.60;99.90;;;;;;5021829;28;20455;-77
2022/07/31 06:45:24;;;;;;;1999.90;999.90;;;19.60;99.90;;;;;;5026745;28;20159;-77
2022/07/31 06:47:50;;;;;;;1999.90;999.90;;;19.70;99.90;;;;;;5027490;28;20061;-76
2022/07/31 06:50:39;;;;;;;1999.90;999.90;;;19.70;99.90;;;;;;5023742;28;20044;-76
2022/07/31 06:53:05;;;;;;;1999.90;999.90;;;19.80;99.90;;;;;;4967336;28;20047;-77
2022/07/31 06:55:39;;;;;;;1999.90;999.90;;;19.80;99.90;;;;;;4965810;28;20259;-76
2022/07/31 06:58:05;;;;;;;1999.90;999.90;;;19.80;99.90;;;;;;4994989;28;20049;-77
2022/07/31 07:00:31;;;;;;;1999.90;999.90;;;19.80;99.90;;;;;;5038869;28;20106;-77
2022/07/31 07:02:56;;;;;;;1999.90;999.90;;;19.80;99.90;;;;;;5046223;28;20127;-77
2022/07/31 07:05:22;;;;;;;1999.90;999.90;;;19.80;99.90;;;;;;5032925;28;20049;-77
2022/07/31 07:07:48;;;;;;;1999.90;999.90;;;19.90;99.90;;;;;;5035650;28;20037;-76
2022/07/31 07:10:13;;;;;;;1999.90;999.90;;;19.80;99.90;;;;;;5043574;28;20634;-77
2022/07/31 07:12:39;;;;;;;1999.90;999.90;;;19.90;99.90;;;;;;5048074;28;20073;-77
2022/07/31 07:15:05;;;;;;;1999.90;999.90;;;19.90;99.90;;;;;;5056460;28;20048;-77
2022/07/31 07:17:36;;;;;;;1999.90;999.90;;;20.00;99.90;;;;;;5028900;28;20639;-77
2022/07/31 07:20:02;;;;;;;1999.90;999.90;;;20.10;99.90;;;;;;5034195;28;20110;-77
2022/07/31 07:22:36;;;;;;;1999.90;999.90;;;20.20;99.90;;;;;;5049981;28;20067;-76
2022/07/31 07:25:02;;;;;;;1999.90;999.90;;;20.20;99.90;;;;;;5050579;28;20048;-77
2022/07/31 07:27:28;;;;;;;1999.90;999.90;;;20.30;99.90;;;;;;5049787;28;20048;-77
2022/07/31 07:29:54;;;;;;;1999.90;999.90;;;20.30;99.90;;;;;;5082763;27;20061;-77
2022/07/31 07:32:20;;;;;;;1999.90;999.90;;;20.40;99.90;;;;;;5122520;27;20529;-77
2022/07/31 07:34:45;;;;;;;1999.90;999.90;;;20.50;99.90;;;;;;5125308;27;20046;-77
2022/07/31 07:37:11;;;;;;;1999.90;999.90;;;20.60;99.90;;;;;;5129578;27;20035;-77
2022/07/31 07:39:37;;;;;;;1999.90;999.90;;;20.70;99.90;;;;;;5124382;27;20058;-77
2022/07/31 07:42:02;;;;;;;1999.90;999.90;;;20.90;99.90;;;;;;5129319;27;20122;-76
2022/07/31 07:44:28;;;;;;;1999.90;999.90;;;21.10;99.90;;;;;;5114783;27;20513;-77
2022/07/31 07:46:54;;;;;;;1999.90;999.90;;;21.30;99.90;;;;;;5110473;27;20035;-77
2022/07/31 07:49:20;;;;;;;1999.90;999.90;;;21.50;99.90;;;;;;5116356;27;20457;-77
2022/07/31 07:51:46;;;;;;;1999.90;999.90;;;21.80;99.90;;;;;;5125292;27;20165;-77
2022/07/31 07:54:11;;;;;;;1999.90;999.90;;;22.00;99.90;;;;;;5103699;27;20130;-76
2022/07/31 07:56:37;;;;;;;1999.90;999.90;;;22.20;99.90;;;;;;5118509;27;20043;-76
2022/07/31 07:59:03;;;;;;;1999.90;999.90;;;22.20;99.90;;;;;;5114080;27;20419;-77
2022/07/31 08:01:29;;;;;;;1999.90;999.90;;;22.10;99.90;;;;;;5120202;27;20135;-77
2022/07/31 08:03:55;;;;;;;1999.90;999.90;;;22.10;99.90;;;;;;5122445;27;20039;-76
2022/07/31 08:06:22;;;;;;;1999.90;999.90;;;22.00;99.90;;;;;;5090757;27;20066;-76
2022/07/31 08:08:47;;;;;;;1999.90;999.90;;;21.90;99.90;;;;;;5107383;27;20383;-77
2022/07/31 08:11:13;;;;;;;1999.90;999.90;;;21.90;99.90;;;;;;5123058;27;20062;-77
2022/07/31 08:13:39;;;;;;;1999.90;999.90;;;21.90;99.90;;;;;;5127797;27;20047;-77
2022/07/31 08:16:04;;;;;;;1999.90;999.90;;;21.80;99.90;;;;;;5103808;28;20046;-77
2022/07/31 08:18:30;;;;;;;1999.90;999.90;;;21.80;99.90;;;;;;5135509;27;20035;-77
2022/07/31 08:20:56;;;;;;;1999.90;999.90;;;21.80;99.90;;;;;;5138400;27;20043;-77
2022/07/31 08:23:21;;;;;;;1999.90;999.90;;;21.80;99.90;;;;;;5135617;27;20043;-76
2022/07/31 08:25:47;;;;;;;1999.90;999.90;;;21.90;99.90;;;;;;5118397;27;20046;-76
2022/07/31 08:28:13;;;;;;;1999.90;999.90;;;21.90;99.90;;;;;;5141801;27;20043;-77
2022/07/31 08:30:38;;;;;;;1999.90;999.90;;;21.80;99.90;;;;;;5142010;27;20429;-77
2022/07/31 08:33:04;;;;;;;1999.90;999.90;;;21.70;99.90;;;;;;5106631;27;20039;-77
2022/07/31 08:35:29;;;;;;;1999.90;999.90;;;21.70;99.90;;;;;;5132853;27;21006;-77
2022/07/31 08:37:55;;;;;;;1999.90;999.90;;;21.70;99.90;;;;;;5127469;27;20032;-77
2022/07/31 08:40:21;;;;;;;1999.90;999.90;;;21.60;99.90;;;;;;5131842;27;20048;-76
2022/07/31 08:42:46;;;;;;;1999.90;999.90;;;21.60;99.90;;;;;;5131228;27;20054;-76
2022/07/31 08:45:13;;;;;;;1999.90;999.90;;;21.50;99.90;;;;;;5121848;27;20050;-77
2022/07/31 08:47:43;;;;;;;1999.90;999.90;;;21.40;99.90;;;;;;5127209;27;20400;-77
2022/07/31 08:50:12;;;;;;;1999.90;999.90;;;21.40;99.90;;;;;;5118889;27;20042;-77
2022/07/31 08:52:41;;;;;;;1999.90;999.90;;;21.30;99.90;;;;;;5085047;28;20047;-77
2022/07/31 08:55:07;;;;;;;1999.90;999.90;;;21.30;99.90;;;;;;5118879;27;20125;-77
2022/07/31 08:57:35;;;;;;;1999.90;999.90;;;21.20;99.90;;;;;;5109581;27;20039;-76
2022/07/31 09:00:01;;;;;;;1999.90;999.90;;;21.10;99.90;;;;;;5110748;28;20107;-77
2022/07/31 09:02:27;;;;;;;1999.90;999.90;;;21.00;99.90;;;;;;5138626;27;20299;-78
2022/07/31 09:04:53;;;;;;;1999.90;999.90;;;20.90;99.90;;;;;;5130240;27;20039;-79
2022/07/31 09:07:19;;;;;;;1999.90;999.90;;;20.80;99.90;;;;;;5127210;27;20039;-79
2022/07/31 09:09:46;;;;;;;1999.90;999.90;;;20.70;99.90;;;;;;5124171;27;20042;-79
2022/07/31 09:12:12;;;;;;;1999.90;999.90;;;20.60;99.90;;;;;;5106131;27;20050;-79
2022/07/31 09:14:38;;;;;;;1999.90;999.90;;;20.50;99.90;;;;;;5112205;27;20658;-79
2022/07/31 09:17:06;;;;;;;1999.90;999.90;;;20.50;99.90;;;;;;5122723;27;20038;-78
2022/07/31 09:19:40;;;;;;;1999.90;999.90;;;20.40;99.90;;;;;;5140138;27;20528;-79
2022/07/31 09:22:06;;;;;;;1999.90;999.90;;;20.40;99.90;;;;;;5138316;27;20035;-79
2022/07/31 09:24:34;;;;;;;1999.90;999.90;;;20.30;99.90;;;;;;5140650;27;20043;-79
2022/07/31 09:27:07;;;;;;;1999.90;999.90;;;20.30;99.90;;;;;;5129964;27;20043;-79
2022/07/31 09:29:38;;;;;;;1999.90;999.90;;;20.20;99.90;;;;;;5129339;27;20519;-79
2022/07/31 09:32:19;;;;;;;1999.90;999.90;;;20.10;99.90;;;;;;5088388;27;20547;-79
2022/07/31 09:34:46;;;;;;;1999.90;999.90;;;20.10;99.90;;;;;;5093545;28;20047;-79
2022/07/31 09:37:13;;;;;;;1999.90;999.90;;;20.10;99.90;;;;;;5098154;27;20063;-79
2022/07/31 09:39:40;;;;;;;1999.90;999.90;;;20.10;99.90;;;;;;5120430;27;20051;-79
2022/07/31 09:42:07;;;;;;;1999.90;999.90;;;20.10;99.90;;;;;;5111191;27;20039;-79
2022/07/31 09:44:41;;;;;;;1999.90;999.90;;;20.10;99.90;;;;;;5112017;27;20052;-78
2022/07/31 09:47:19;;;;;;;1999.90;999.90;;;20.10;99.90;;;;;;5124691;27;20543;-79
2022/07/31 09:49:52;;;;;;;1999.90;999.90;;;20.00;99.90;;;;;;5112624;27;20077;-79
2022/07/31 09:52:20;;;;;;;1999.90;999.90;;;20.00;99.90;;;;;;5119403;27;20514;-78
2022/07/31 09:54:46;;;;;;;1999.90;999.90;;;19.90;99.90;;;;;;5126553;27;20499;-79
2022/07/31 09:57:13;;;;;;;1999.90;999.90;;;19.90;99.90;;;;;;5125725;27;20087;-78
2022/07/31 09:59:39;;;;;;;1999.90;999.90;;;19.90;99.90;;;;;;5133128;27;20043;-79
2022/07/31 10:02:07;;;;;;;1999.90;999.90;;;19.90;99.90;;;;;;5122003;27;20047;-79
2022/07/31 10:04:35;;;;;;;1999.90;999.90;;;20.00;99.90;;;;;;5132950;27;20069;-79
2022/07/31 10:07:01;;;;;;;1999.90;999.90;;;20.20;99.90;;;;;;5120085;27;20158;-81
2022/07/31 10:09:29;;;;;;;1999.90;999.90;;;20.30;99.90;;;;;;5119414;27;20519;-79
2022/07/31 10:11:57;;;;;;;1999.90;999.90;;;20.40;99.90;;;;;;5112721;27;20078;-79
2022/07/31 10:14:29;;;;;;;1999.90;999.90;;;20.40;99.90;;;;;;5127432;27;20043;-79
2022/07/31 10:16:57;;;;;;;1999.90;999.90;;;20.40;99.90;;;;;;5127750;27;20118;-80
2022/07/31 10:19:26;;;;;;;1999.90;999.90;;;20.40;99.90;;;;;;5132286;27;20095;-80
2022/07/31 10:21:58;;;;;;;1999.90;999.90;;;20.30;99.90;;;;;;5126619;27;20096;-81
2022/07/31 10:24:27;;;;;;;1999.90;999.90;;;20.20;99.90;;;;;;5129994;27;20039;-80
2022/07/31 10:26:57;;;;;;;1999.90;999.90;;;20.10;99.90;;;;;;5133881;27;20494;-80
2022/07/31 10:29:23;;;;;;;1999.90;999.90;;;20.00;99.90;;;;;;5128823;27;20096;-79
2022/07/31 10:31:49;;;;;;;1999.90;999.90;;;20.10;99.90;;;;;;5106171;27;20166;-82
2022/07/31 10:34:15;;;;;;;1999.90;999.90;;;20.00;99.90;;;;;;5113835;27;20124;-81
2022/07/31 10:36:44;;;;;;;1999.90;999.90;;;20.00;99.90;;;;;;5107735;27;21659;-81
2022/07/31 10:39:34;;;;;;;1999.90;999.90;;;20.00;99.90;;;;;;5121089;27;20077;-81
2022/07/31 10:42:41;;;;;;;1999.90;999.90;;;20.00;99.90;;;;;;5122282;27;20074;-82
2022/07/31 10:45:09;;;;;;;1999.90;999.90;;;19.90;99.90;;;;;;5119724;27;20043;-82
2022/07/31 10:47:35;;;;;;;1999.90;999.90;;;19.80;99.90;;;;;;5129231;27;21281;-81
2022/07/31 10:50:01;;;;;;;1999.90;999.90;;;19.70;99.90;;;;;;5120886;27;20520;-81
2022/07/31 10:52:32;;;;;;;1999.90;999.90;;;19.70;99.90;;;;;;5127474;27;20034;-82
2022/07/31 10:55:00;;;;;;;1999.90;999.90;;;19.60;99.90;;;;;;5089784;27;20170;-81
2022/07/31 10:57:31;;;;;;;1999.90;999.90;;;19.60;99.90;;;;;;5124893;27;20040;-81
2022/07/31 11:00:10;;;;;;;1999.90;999.90;;;19.50;99.90;;;;;;5123028;27;20050;-81
2022/07/31 11:02:36;;;;;;;1999.90;999.90;;;19.50;99.90;;;;;;5104176;27;20660;-81
2022/07/31 11:05:06;;;;;;;1999.90;999.90;;;19.50;99.90;;;;;;5115669;27;20039;-80
2022/07/31 11:07:32;;;;;;;1999.90;999.90;;;19.50;99.90;;;;;;5126006;27;20475;-79
2022/07/31 11:10:10;;;;;;;1999.90;999.90;;;19.40;99.90;;;;;;5106158;27;20505;-77
2022/07/31 11:12:36;;;;;;;1999.90;999.90;;;19.40;99.90;;;;;;5123438;27;20053;-80
2022/07/31 11:15:01;;;;;;;1999.90;999.90;;;19.40;99.90;;;;;;5127703;27;20043;-79
2022/07/31 11:17:37;;;;;;;1999.90;999.90;;;19.40;99.90;;;;;;5112226;27;20510;-79
2022/07/31 11:20:03;;;;;;;1999.90;999.90;;;19.40;99.90;;;;;;5126572;27;20042;-78
2022/07/31 11:22:29;;;;;;;1999.90;999.90;;;19.30;99.90;;;;;;5120428;27;20035;-79
2022/07/31 11:24:57;;;;;;;1999.90;999.90;;;19.30;99.90;;;;;;5112023;27;20096;-78
2022/07/31 11:27:32;;;;;;;1999.90;999.90;;;19.30;99.90;;;;;;5091893;27;21387;-78
2022/07/31 11:30:05;;;;;;;1999.90;999.90;;;19.30;99.90;;;;;;5120427;27;20122;-78
2022/07/31 11:32:31;;;;;;;1999.90;999.90;;;19.20;99.90;;;;;;5115918;27;20032;-78
2022/07/31 11:34:57;;;;;;;1999.90;999.90;;;19.20;99.90;;;;;;5083699;28;20054;-77
2022/07/31 11:37:24;;;;;;;1999.90;999.90;;;19.20;99.90;;;;;;5127730;27;20050;-78
2022/07/31 11:39:51;;;;;;;1999.90;999.90;;;19.20;99.90;;;;;;5121041;27;20047;-75
2022/07/31 11:42:18;;;;;;;1999.90;999.90;;;19.20;99.90;;;;;;5107988;27;20093;-75
2022/07/31 11:44:44;;;;;;;1999.90;999.90;;;19.10;99.90;;;;;;5114983;27;20359;-75
2022/07/31 11:47:10;;;;;;;1999.90;999.90;;;19.10;99.90;;;;;;5107744;27;20083;-74
2022/07/31 11:49:36;;;;;;;1999.90;999.90;;;19.00;99.90;;;;;;5120939;27;20169;-75
2022/07/31 11:52:05;;;;;;;1999.90;999.90;;;19.10;99.90;;;;;;5090723;28;20048;-75
2022/07/31 11:54:31;;;;;;;1999.90;999.90;;;18.90;99.90;;;;;;5097455;28;20031;-75
2022/07/31 11:56:57;;;;;;;1999.90;999.90;;;18.90;99.90;;;;;;5106284;27;20039;-75
2022/07/31 11:59:36;;;;;;;1999.90;999.90;;;18.90;99.90;;;;;;5099339;27;20501;-77